Hastings, Florida
Current Conditions -  °F | °C
As of 3:15 PM on Wednesday 26 Nov 2014 (Local Time) from K28J Reporting Station
Clear Clear  
Wind Chill: 63°   Ceiling: Unl
Heat Index: 63°   Visibility: 10mi
Dew Point: 45°   Wind: 10mph
Humidity: 52%   Direction: 300°WNW
Pressure: 30.13"   Gusts: NA
Location:  29.72°N, 81.51°W
Report Text: K28J 262015Z AUTO 30009KT 260V320 10SM CLR 17/07 A3013 RMK AO2
Loading
Personal Weather Stations






























Interactive Weather Map New forecast layout! Learn more

10-Day Weather Forecast

Advertisements
Track Severe Weather on mobile